General Aviation Weather

Text Reports

Enter one or more of the following location identifiers separated by a space:

Zip Code, Four-Character ICAO or Three-Character IATA airport codes.

METAR - Aviation Routine Weather Report
KDFI - Defiance, Ohio
Updated at 5:53 PM GMT on February 01, 2015 (12:53 PM EST):
METAR KDFI 011753Z AUTO 07014G20KT 1/2SM SN FZFG OVC007 M02/M03 A2990 RMK AO2 SLP133 P0000 60002 T10221033 10000 21022 58031
TAF - Terminal Area Forecast
KDFI - Defiance, Ohio
Updated at 5:53 PM GMT on February 01, 2015 (12:53 PM EST):
No TAF is currently available for this location.
Decoded:
No decoded TAF is available.
PIREP - Pilot Weather Report
KDFI - Defiance, Ohio
Updated at 5:53 PM GMT on February 01, 2015 (12:53 PM EST):
No PIREP is currently available for this location.
AIRMET - Airmens Meteorological Information
KDFI - Defiance, Ohio
Updated at 5:53 PM GMT on February 01, 2015 (12:53 PM EST):
No AIRMET is currently available for this location.
SIGMET - Significant Meteorological Information
KDFI - Defiance, Ohio
Updated at 5:53 PM GMT on February 01, 2015 (12:53 PM EST):
No SIGMET is currently available for this location.
NOTAM - Notice to Airmen
KDFI - Defiance, Ohio
Updated at 5:53 PM GMT on February 01, 2015 (12:53 PM EST):
No NOTAM is currently available for this location.
Forecast Area
KDFI - Defiance, Ohio
Updated at 5:53 PM GMT on February 01, 2015 (12:53 PM EST):
No NOTAM is currently available for this location.
Aviation Weather Maps